Time;durP1;ratioP1;P1;durP2;ratioP2;P2;SDS_P1;SDS_P2;PMS_P1;PMS_P2;Temp;Humidity;BMP_temperature;BMP_pressure;BME280_temperature;BME280_humidity;BME280_pressure;Samples;Min_cycle;Max_cycle;Signal;HPM_P1;HPM_P2
2023/07/25 00:03:04;;;;;;;;;;;;;;;13.94;100.00;100574.28;10499010;28;19924;-63
2023/07/25 00:08:07;;;;;;;;;;;;;;;13.81;100.00;100584.88;10499396;28;19932;-63
2023/07/25 00:13:09;;;;;;;;;;;;;;;13.80;100.00;100585.84;10498770;28;20331;-63
2023/07/25 00:18:12;;;;;;;;;;;;;;;13.78;100.00;100595.63;10498897;28;19930;-63
2023/07/25 00:23:14;;;;;;;;;;;;;;;13.72;100.00;100588.19;10498693;28;19924;-63
2023/07/25 00:28:16;;;;;;;;;;;;;;;13.47;100.00;100592.63;10498764;28;19933;-63
2023/07/25 00:33:18;;;;;;;;;;;;;;;13.31;100.00;100595.47;10464094;28;19925;-63
2023/07/25 00:38:21;;;;;;;;;;;;;;;13.25;100.00;100603.81;10498565;28;19931;-63
2023/07/25 00:43:23;;;;;;;;;;;;;;;13.26;100.00;100605.47;10498056;28;20402;-63
2023/07/25 00:48:25;;;;;;;;;;;;;;;13.36;100.00;100606.56;10498163;28;19931;-63
2023/07/25 00:53:27;;;;;;;;;;;;;;;13.43;100.00;100600.84;10506251;28;19931;-63
2023/07/25 00:58:30;;;;;;;;;;;;;;;13.26;100.00;100594.97;10506553;28;19924;-63
2023/07/25 01:03:32;;;;;;;;;;;;;;;13.42;100.00;100593.91;10506227;28;19931;-63
2023/07/25 01:08:46;;;;;;;;;;;;;;;13.26;100.00;100597.59;10506138;28;19998;-63
2023/07/25 01:13:48;;;;;;;;;;;;;;;13.05;100.00;100592.09;10505806;28;19924;-63
2023/07/25 01:18:51;;;;;;;;;;;;;;;12.82;100.00;100593.72;10471410;28;19925;-63
2023/07/25 01:23:58;;;;;;;;;;;;;;;12.79;100.00;100600.03;10505379;28;19931;-63
2023/07/25 01:29:00;;;;;;;;;;;;;;;12.85;100.00;100592.69;10487380;28;19925;-63
2023/07/25 01:34:02;;;;;;;;;;;;;;;12.91;100.00;100592.22;10505093;28;19932;-63
2023/07/25 01:39:05;;;;;;;;;;;;;;;12.72;100.00;100588.25;10504744;28;20275;-63
2023/07/25 01:44:07;;;;;;;;;;;;;;;12.68;100.00;100585.97;10528761;23;19932;-69
2023/07/25 01:49:10;;;;;;;;;;;;;;;12.68;100.00;100588.59;10546436;28;19924;-69
2023/07/25 01:54:12;;;;;;;;;;;;;;;12.53;100.00;100583.44;10545015;28;19930;-69
2023/07/25 01:59:16;;;;;;;;;;;;;;;12.56;100.00;100585.88;10545980;28;19924;-68
2023/07/25 02:04:18;;;;;;;;;;;;;;;12.50;100.00;100569.69;10544544;28;19924;-69
2023/07/25 02:09:20;;;;;;;;;;;;;;;12.44;100.00;100566.56;10545540;28;19947;-69
2023/07/25 02:14:23;;;;;;;;;;;;;;;12.45;100.00;100570.00;10545686;28;19924;-69
2023/07/25 02:19:25;;;;;;;;;;;;;;;12.43;100.00;100569.28;10544186;28;19924;-68
2023/07/25 02:24:27;;;;;;;;;;;;;;;12.29;100.00;100566.75;10544913;28;19951;-69
2023/07/25 02:29:30;;;;;;;;;;;;;;;12.47;100.00;100564.66;10544808;28;20293;-69
2023/07/25 02:34:32;;;;;;;;;;;;;;;12.56;100.00;100564.03;10543490;28;19924;-69
2023/07/25 02:39:34;;;;;;;;;;;;;;;12.48;100.00;100561.09;10544342;28;20466;-68
2023/07/25 02:44:36;;;;;;;;;;;;;;;12.62;100.00;100561.81;10543809;28;19924;-68
2023/07/25 02:49:38;;;;;;;;;;;;;;;12.54;100.00;100563.28;10544207;28;19924;-69
2023/07/25 02:54:41;;;;;;;;;;;;;;;12.53;100.00;100561.63;10543972;28;19930;-69
2023/07/25 02:59:43;;;;;;;;;;;;;;;12.52;100.00;100567.81;10543492;28;19947;-69
2023/07/25 03:04:45;;;;;;;;;;;;;;;12.61;100.00;100561.94;10543215;28;20023;-69
2023/07/25 03:09:47;;;;;;;;;;;;;;;12.42;100.00;100564.97;10543238;28;19928;-69
2023/07/25 03:14:50;;;;;;;;;;;;;;;12.49;100.00;100560.13;10542974;28;19931;-69
2023/07/25 03:19:52;;;;;;;;;;;;;;;12.52;100.00;100565.16;10542720;28;20294;-69
2023/07/25 03:24:54;;;;;;;;;;;;;;;12.55;100.00;100564.97;10542523;28;19931;-69
2023/07/25 03:29:56;;;;;;;;;;;;;;;12.32;100.00;100558.66;10542575;28;20010;-69
2023/07/25 03:34:59;;;;;;;;;;;;;;;12.32;100.00;100569.16;10542358;28;19924;-69
2023/07/25 03:40:01;;;;;;;;;;;;;;;12.36;100.00;100568.03;10542232;28;19931;-69
2023/07/25 03:45:03;;;;;;;;;;;;;;;12.57;100.00;100563.91;10540590;28;19924;-69
2023/07/25 03:50:06;;;;;;;;;;;;;;;12.70;100.00;100558.63;10542017;28;19931;-69
2023/07/25 03:55:08;;;;;;;;;;;;;;;12.76;100.00;100560.84;10541554;28;19935;-69
2023/07/25 04:00:11;;;;;;;;;;;;;;;12.63;100.00;100555.59;10540072;28;19947;-69
2023/07/25 04:05:13;;;;;;;;;;;;;;;12.61;100.00;100567.19;10541286;28;19924;-69
2023/07/25 04:10:16;;;;;;;;;;;;;;;12.67;100.00;100553.59;10540958;28;19999;-70
2023/07/25 04:15:18;;;;;;;;;;;;;;;12.85;100.00;100559.34;10539783;28;19928;-69
2023/07/25 04:20:20;;;;;;;;;;;;;;;12.82;100.00;100551.69;10540732;28;19924;-69
2023/07/25 04:25:23;;;;;;;;;;;;;;;12.75;100.00;100559.16;10539631;28;19924;-69
2023/07/25 04:30:25;;;;;;;;;;;;;;;12.96;100.00;100548.94;10540346;28;19924;-69
2023/07/25 04:35:27;;;;;;;;;;;;;;;12.91;100.00;100569.44;10540199;28;19924;-69
2023/07/25 04:40:29;;;;;;;;;;;;;;;12.91;100.00;100563.31;10539865;28;20281;-69
2023/07/25 04:45:32;;;;;;;;;;;;;;;12.84;100.00;100555.03;10539966;28;19924;-70
2023/07/25 04:50:34;;;;;;;;;;;;;;;12.92;100.00;100562.38;10539856;28;20278;-69
2023/07/25 04:55:36;;;;;;;;;;;;;;;12.90;100.00;100567.75;10539921;28;19930;-69
2023/07/25 05:00:38;;;;;;;;;;;;;;;12.91;100.00;100571.19;10539665;28;20377;-69
2023/07/25 05:05:41;;;;;;;;;;;;;;;12.89;100.00;100581.81;10539461;28;20023;-69
2023/07/25 05:10:43;;;;;;;;;;;;;;;13.04;100.00;100579.91;10539455;28;19930;-69
2023/07/25 05:15:45;;;;;;;;;;;;;;;12.91;100.00;100576.47;10539613;28;19924;-69
2023/07/25 05:20:47;;;;;;;;;;;;;;;13.08;100.00;100575.25;10539315;28;20343;-69
2023/07/25 05:25:50;;;;;;;;;;;;;;;13.00;100.00;100584.53;10539264;28;19924;-69
2023/07/25 05:30:52;;;;;;;;;;;;;;;13.33;100.00;100577.84;10537873;28;20358;-69
2023/07/25 05:36:03;;;;;;;;;;;;;;;13.63;100.00;100568.66;10540720;28;20278;-70
2023/07/25 05:41:06;;;;;;;;;;;;;;;13.85;100.00;100565.28;10528884;28;19924;-69
2023/07/25 05:46:09;;;;;;;;;;;;;;;13.91;100.00;100564.81;10545410;28;19928;-69
2023/07/25 05:51:11;;;;;;;;;;;;;;;13.97;100.00;100567.94;10546643;28;19975;-69
2023/07/25 05:56:13;;;;;;;;;;;;;;;14.33;100.00;100560.84;10546329;28;20003;-69
2023/07/25 06:01:15;;;;;;;;;;;;;;;14.31;100.00;100571.50;10545927;28;19924;-69
2023/07/25 06:06:18;;;;;;;;;;;;;;;14.49;100.00;100569.22;10544592;28;19924;-69
2023/07/25 06:11:22;;;;;;;;;;;;;;;14.95;100.00;100572.72;10545496;28;20362;-69
2023/07/25 06:16:25;;;;;;;;;;;;;;;14.94;100.00;100573.66;10545496;28;19924;-69
2023/07/25 06:21:27;;;;;;;;;;;;;;;14.59;100.00;100585.19;10545156;28;20286;-69
2023/07/25 06:26:29;;;;;;;;;;;;;;;14.80;100.00;100582.69;10545108;28;19930;-69
2023/07/25 06:31:31;;;;;;;;;;;;;;;14.99;100.00;100574.16;10544914;28;19931;-69
2023/07/25 06:36:34;;;;;;;;;;;;;;;15.07;100.00;100577.00;10544599;28;19931;-69
2023/07/25 06:41:36;;;;;;;;;;;;;;;15.17;100.00;100577.94;10544006;28;20375;-69
2023/07/25 06:46:38;;;;;;;;;;;;;;;14.96;100.00;100588.41;10543620;28;20007;-69
2023/07/25 06:51:41;;;;;;;;;;;;;;;15.41;100.00;100579.56;10542855;28;19924;-69
2023/07/25 06:56:43;;;;;;;;;;;;;;;15.53;100.00;100573.31;10543727;28;19924;-68
2023/07/25 07:01:45;;;;;;;;;;;;;;;15.39;100.00;100574.41;10543497;28;19924;-68
2023/07/25 07:06:48;;;;;;;;;;;;;;;15.49;100.00;100584.22;10542325;28;20018;-68
2023/07/25 07:11:50;;;;;;;;;;;;;;;15.84;100.00;100583.16;10542987;28;19981;-68
2023/07/25 07:16:52;;;;;;;;;;;;;;;16.49;99.71;100589.09;10543194;28;19925;-68
2023/07/25 07:21:54;;;;;;;;;;;;;;;15.96;100.00;100590.06;10541608;28;19924;-68
2023/07/25 07:26:57;;;;;;;;;;;;;;;16.58;99.41;100595.44;10542809;28;19924;-68
2023/07/25 07:32:02;;;;;;;;;;;;;;;16.43;100.00;100600.22;10542328;28;20397;-69
2023/07/25 07:37:04;;;;;;;;;;;;;;;16.44;100.00;100605.38;10542272;28;19931;-68
2023/07/25 07:42:07;;;;;;;;;;;;;;;16.05;100.00;100609.56;10541707;28;19934;-68
2023/07/25 07:47:09;;;;;;;;;;;;;;;16.24;95.02;100617.63;10541838;28;19975;-69
2023/07/25 07:52:11;;;;;;;;;;;;;;;17.29;94.14;100626.34;10541795;28;19930;-69
2023/07/25 07:57:23;;;;;;;;;;;;;;;17.09;90.65;100620.97;10541447;28;19924;-69
2023/07/25 08:02:26;;;;;;;;;;;;;;;16.96;90.87;100634.41;10541197;28;19924;-69
2023/07/25 08:07:28;;;;;;;;;;;;;;;17.79;87.75;100650.91;10541263;28;19970;-69
2023/07/25 08:12:30;;;;;;;;;;;;;;;17.36;85.32;100646.81;10540859;28;19924;-69
2023/07/25 08:17:32;;;;;;;;;;;;;;;17.78;83.01;100640.47;10539571;28;19947;-69
2023/07/25 08:22:35;;;;;;;;;;;;;;;17.99;84.03;100643.00;10540452;28;19924;-69
2023/07/25 08:27:37;;;;;;;;;;;;;;;17.94;85.02;100650.53;10540596;28;19924;-69
2023/07/25 08:32:39;;;;;;;;;;;;;;;18.14;80.34;100638.97;10539321;28;19928;-69
2023/07/25 08:37:42;;;;;;;;;;;;;;;18.07;80.99;100648.44;10540115;28;19924;-69
2023/07/25 08:42:44;;;;;;;;;;;;;;;17.59;83.18;100652.69;10539852;28;19930;-69
2023/07/25 08:47:46;;;;;;;;;;;;;;;17.52;83.22;100656.88;10538738;28;20290;-69
2023/07/25 08:52:50;;;;;;;;;;;;;;;18.23;80.46;100650.50;10538961;28;19924;-69
2023/07/25 08:57:52;;;;;;;;;;;;;;;18.26;80.17;100652.88;10538671;28;19931;-69
2023/07/25 09:02:54;;;;;;;;;;;;;;;18.50;74.73;100652.41;10539610;28;20379;-69
2023/07/25 09:07:58;;;;;;;;;;;;;;;19.11;73.99;100650.28;10539603;28;20442;-69
2023/07/25 09:13:01;;;;;;;;;;;;;;;18.84;73.27;100640.47;10543912;28;19963;-69
2023/07/25 09:18:04;;;;;;;;;;;;;;;19.76;74.87;100649.34;10547768;28;19997;-69
2023/07/25 09:23:06;;;;;;;;;;;;;;;19.34;73.58;100661.34;10547424;28;20370;-69
2023/07/25 09:28:08;;;;;;;;;;;;;;;17.53;76.92;100676.22;10547304;28;20274;-69
2023/07/25 09:33:18;;;;;;;;;;;;;;;17.46;79.89;100681.22;10547310;28;19924;-68
2023/07/25 09:38:21;;;;;;;;;;;;;;;17.39;80.44;100678.28;10545805;28;19931;-69
2023/07/25 09:43:23;;;;;;;;;;;;;;;17.98;78.92;100671.28;10546532;28;19924;-68
2023/07/25 09:48:26;;;;;;;;;;;;;;;18.09;78.03;100678.28;10546507;28;20143;-68
2023/07/25 09:53:29;;;;;;;;;;;;;;;18.75;72.12;100666.84;10546324;28;20371;-69
2023/07/25 09:58:32;;;;;;;;;;;;;;;20.88;65.92;100669.97;10546160;28;19970;-68
2023/07/25 10:03:34;;;;;;;;;;;;;;;20.96;64.16;100667.38;10544914;28;19924;-68
2023/07/25 10:08:37;;;;;;;;;;;;;;;21.67;62.75;100661.78;10546046;28;20047;-68
2023/07/25 10:13:40;;;;;;;;;;;;;;;22.22;62.07;100669.13;10527678;28;19970;-68
2023/07/25 10:18:42;;;;;;;;;;;;;;;20.50;63.32;100672.03;10544178;28;19930;-68
2023/07/25 10:23:45;;;;;;;;;;;;;;;18.91;65.38;100671.59;10542833;28;19924;-69
2023/07/25 10:28:47;;;;;;;;;;;;;;;18.73;64.83;100675.97;10543673;28;20371;-68
2023/07/25 10:33:54;;;;;;;;;;;;;;;18.94;64.95;100667.81;10544856;28;19934;-68
2023/07/25 10:39:09;;;;;;;;;;;;;;;20.67;61.98;100664.22;10544876;28;20018;-68
2023/07/25 10:44:11;;;;;;;;;;;;;;;22.49;58.71;100663.66;10542818;28;19947;-68
2023/07/25 10:49:15;;;;;;;;;;;;;;;22.49;56.42;100658.31;10543311;28;19924;-68
2023/07/25 10:54:18;;;;;;;;;;;;;;;23.08;56.23;100655.34;10542984;28;19923;-65
2023/07/25 10:59:20;;;;;;;;;;;;;;;23.56;54.32;100656.09;10543758;28;19934;-68
2023/07/25 11:04:22;;;;;;;;;;;;;;;22.66;53.89;100649.25;10542551;28;19931;-68
2023/07/25 11:09:25;;;;;;;;;;;;;;;24.28;51.55;100652.22;10542318;28;20030;-68
2023/07/25 11:14:27;;;;;;;;;;;;;;;24.33;52.06;100639.16;10543482;28;19959;-68
2023/07/25 11:19:29;;;;;;;;;;;;;;;23.49;49.49;100647.13;10541759;28;20375;-69
2023/07/25 11:24:39;;;;;;;;;;;;;;;23.64;49.45;100642.69;10542735;28;19924;-68
2023/07/25 11:29:41;;;;;;;;;;;;;;;25.34;48.89;100631.47;10542642;28;20359;-68
2023/07/25 11:34:48;;;;;;;;;;;;;;;24.08;45.94;100642.03;10542169;28;19924;-68
2023/07/25 11:39:50;;;;;;;;;;;;;;;24.13;50.52;100640.69;10542425;28;19935;-69
2023/07/25 11:44:52;;;;;;;;;;;;;;;24.08;47.26;100634.00;10541854;28;19924;-68
2023/07/25 11:49:54;;;;;;;;;;;;;;;25.45;48.59;100632.81;10541796;28;19973;-68
2023/07/25 11:55:07;;;;;;;;;;;;;;;24.65;47.54;100631.81;10541578;28;19928;-68
2023/07/25 12:00:11;;;;;;;;;;;;;;;23.83;45.99;100644.06;10541408;28;19924;-68
2023/07/25 12:05:29;;;;;;;;;;;;;;;26.88;45.81;100647.00;10541301;28;19967;-69
2023/07/25 12:10:35;;;;;;;;;;;;;;;26.79;43.87;100640.13;10541039;28;19930;-66
2023/07/25 12:15:42;;;;;;;;;;;;;;;24.85;45.87;100642.81;10539832;28;19928;-68
2023/07/25 12:20:44;;;;;;;;;;;;;;;24.60;48.02;100647.59;10539630;28;19993;-67
2023/07/25 12:26:00;;;;;;;;;;;;;;;25.20;47.14;100643.84;10539477;28;19932;-67
2023/07/25 12:31:02;;;;;;;;;;;;;;;25.01;42.45;100644.44;10539492;28;19924;-66
2023/07/25 12:36:04;;;;;;;;;;;;;;;24.27;43.92;100645.22;10540459;28;19931;-66
2023/07/25 12:41:07;;;;;;;;;;;;;;;24.35;42.34;100647.81;10539004;28;20335;-66
2023/07/25 12:46:10;;;;;;;;;;;;;;;23.87;43.76;100653.41;10537728;28;19989;-67
2023/07/25 12:51:12;;;;;;;;;;;;;;;23.39;47.67;100666.06;10540019;28;19955;-66
2023/07/25 12:56:14;;;;;;;;;;;;;;;;;;10538679;28;19924;-67
2023/07/25 13:01:16;;;;;;;;;;;;;;;22.90;47.93;100667.06;10539757;28;19928;-68
2023/07/25 13:06:19;;;;;;;;;;;;;;;22.70;49.36;100687.16;10538482;28;19935;-68
2023/07/25 13:11:21;;;;;;;;;;;;;;;21.54;49.29;100678.25;10539783;28;19924;-68
2023/07/25 13:16:23;;;;;;;;;;;;;;;22.81;49.50;100679.59;10539421;28;19997;-68
2023/07/25 13:21:28;;;;;;;;;;;;;;;22.37;52.22;100690.66;10538302;28;19924;-69
2023/07/25 13:26:31;;;;;;;;;;;;;;;22.79;53.92;100692.28;10537929;28;20010;-68
2023/07/25 13:31:33;;;;;;;;;;;;;;;24.36;51.05;100684.25;10539137;28;20306;-69
2023/07/25 13:36:35;;;;;;;;;;;;;;;24.00;50.07;100682.22;10539065;28;20368;-69
2023/07/25 13:41:38;;;;;;;;;;;;;;;21.66;51.80;100690.25;10538910;28;19930;-69
2023/07/25 13:46:40;;;;;;;;;;;;;;;23.69;50.58;100684.91;10538754;28;19928;-69
2023/07/25 13:51:42;;;;;;;;;;;;;;;23.95;48.90;100691.78;10538764;28;19931;-68
2023/07/25 13:56:44;;;;;;;;;;;;;;;24.56;46.32;100695.31;10527376;22;19925;-64
2023/07/25 14:01:47;;;;;;;;;;;;;;;23.07;48.21;100694.56;10462822;28;19947;-65
2023/07/25 14:06:50;;;;;;;;;;;;;;;23.17;51.15;100705.06;10462534;28;20323;-64
2023/07/25 14:11:53;;;;;;;;;;;;;;;21.35;51.96;100713.97;10462745;28;20335;-64
2023/07/25 14:16:55;;;;;;;;;;;;;;;21.47;52.90;100715.34;10444516;28;19931;-64
2023/07/25 14:21:57;;;;;;;;;;;;;;;23.18;51.48;100712.88;10444347;28;19924;-64
2023/07/25 14:27:00;;;;;;;;;;;;;;;23.23;48.66;100714.19;10461699;28;20020;-64
2023/07/25 14:32:02;;;;;;;;;;;;;;;24.83;46.60;100717.94;10461593;28;19925;-64
2023/07/25 14:37:04;;;;;;;;;;;;;;;23.64;48.76;100717.50;10460228;28;19925;-64
2023/07/25 14:42:07;;;;;;;;;;;;;;;23.42;49.14;100719.13;10461271;28;20012;-65
2023/07/25 14:47:09;;;;;;;;;;;;;;;24.67;46.94;100729.63;10461179;28;19926;-65
2023/07/25 14:52:11;;;;;;;;;;;;;;;23.13;47.12;100736.59;10459769;28;19936;-64
2023/07/25 14:57:16;;;;;;;;;;;;;;;23.68;46.50;100732.19;10460336;28;19925;-64
2023/07/25 15:02:18;;;;;;;;;;;;;;;23.13;44.76;100741.09;10460462;28;19939;-64
2023/07/25 15:07:21;;;;;;;;;;;;;;;24.23;46.06;100729.53;10460130;28;19928;-64
2023/07/25 15:12:23;;;;;;;;;;;;;;;24.47;45.34;100739.19;10459757;28;19939;-64
2023/07/25 15:17:25;;;;;;;;;;;;;;;22.98;49.14;100739.13;10459744;28;20296;-64
2023/07/25 15:22:27;;;;;;;;;;;;;;;24.75;47.63;100752.00;10459841;28;19931;-64
2023/07/25 15:27:30;;;;;;;;;;;;;;;23.03;47.12;100753.78;10459509;28;19932;-64
2023/07/25 15:32:32;;;;;;;;;;;;;;;23.07;47.94;100763.16;10459165;28;20399;-64
2023/07/25 15:37:34;;;;;;;;;;;;;;;21.82;47.36;100755.22;10459034;28;20299;-64
2023/07/25 15:42:37;;;;;;;;;;;;;;;24.24;47.62;100758.78;10458860;28;19929;-64
2023/07/25 15:47:41;;;;;;;;;;;;;;;22.33;45.34;100773.88;10458290;28;20220;-65
2023/07/25 15:52:43;;;;;;;;;;;;;;;23.42;46.78;100761.03;10457356;28;19971;-66
2023/07/25 15:57:46;;;;;;;;;;;;;;;22.31;47.24;100768.69;10458023;28;19925;-66
2023/07/25 16:02:48;;;;;;;;;;;;;;;23.01;47.08;100751.28;10440534;28;19924;-65
2023/07/25 16:07:51;;;;;;;;;;;;;;;21.70;49.45;100760.88;10457873;28;19929;-65
2023/07/25 16:12:53;;;;;;;;;;;;;;;22.44;49.22;100763.72;10457719;28;19943;-66
2023/07/25 16:17:55;;;;;;;;;;;;;;;22.77;46.70;100769.00;10457793;28;19931;-66
2023/07/25 16:22:58;;;;;;;;;;;;;;;21.97;48.36;100763.44;10456766;28;19925;-65
2023/07/25 16:28:00;;;;;;;;;;;;;;;21.85;47.71;100757.56;10439519;28;20291;-65
2023/07/25 16:33:02;;;;;;;;;;;;;;;22.78;47.54;100759.19;10457181;28;19925;-66
2023/07/25 16:38:05;;;;;;;;;;;;;;;22.54;47.83;100758.19;10457327;28;19924;-65
2023/07/25 16:43:07;;;;;;;;;;;;;;;22.07;49.79;100769.44;10456735;28;20295;-66
2023/07/25 16:48:09;;;;;;;;;;;;;;;21.09;51.43;100762.72;10456731;28;19964;-65
2023/07/25 16:53:12;;;;;;;;;;;;;;;20.36;52.96;100776.31;10456608;28;20466;-65
2023/07/25 16:58:14;;;;;;;;;;;;;;;20.69;53.12;100779.25;10456409;28;20397;-66
2023/07/25 17:03:19;;;;;;;;;;;;;;;20.30;54.00;100776.91;10456671;28;19925;-66
2023/07/25 17:08:22;;;;;;;;;;;;;;;20.49;54.13;100779.41;10456374;28;20031;-66
2023/07/25 17:13:24;;;;;;;;;;;;;;;20.83;52.78;100783.19;10455357;28;19931;-66
2023/07/25 17:18:28;;;;;;;;;;;;;;;20.96;52.34;100795.09;10456228;28;19925;-66
2023/07/25 17:23:31;;;;;;;;;;;;;;;20.53;54.32;100791.41;10456100;28;19932;-66
2023/07/25 17:28:33;;;;;;;;;;;;;;;20.79;53.93;100806.59;10455974;28;20395;-65
2023/07/25 17:33:35;;;;;;;;;;;;;;;20.62;55.12;100808.25;10460306;28;20007;-66
2023/07/25 17:38:37;;;;;;;;;;;;;;;19.99;54.56;100811.81;10463698;28;19925;-65
2023/07/25 17:43:40;;;;;;;;;;;;;;;20.03;55.72;100815.84;10463500;28;19931;-65
2023/07/25 17:48:42;;;;;;;;;;;;;;;19.77;56.66;100824.53;10463369;28;20375;-65
2023/07/25 17:53:44;;;;;;;;;;;;;;;19.76;58.17;100833.47;10463114;28;20301;-65
2023/07/25 17:58:46;;;;;;;;;;;;;;;18.95;60.12;100836.63;10463005;28;19931;-65
2023/07/25 18:03:49;;;;;;;;;;;;;;;19.29;60.74;100842.25;10462637;28;20253;-65
2023/07/25 18:08:51;;;;;;;;;;;;;;;19.26;59.87;100842.53;10462677;28;19924;-65
2023/07/25 18:13:56;;;;;;;;;;;;;;;18.55;59.34;100840.22;10462521;28;19931;-65
2023/07/25 18:18:58;;;;;;;;;;;;;;;18.66;59.55;100842.75;10462066;28;20275;-64
2023/07/25 18:24:01;;;;;;;;;;;;;;;18.19;60.94;100846.03;10460707;28;19924;-64
2023/07/25 18:29:03;;;;;;;;;;;;;;;18.46;60.62;100849.84;10460822;28;19925;-64
2023/07/25 18:34:05;;;;;;;;;;;;;;;18.31;62.20;100859.19;10460453;28;19925;-64
2023/07/25 18:39:11;;;;;;;;;;;;;;;18.25;62.92;100860.53;10461470;28;19931;-65
2023/07/25 18:44:13;;;;;;;;;;;;;;;18.35;63.86;100860.56;10460057;28;19924;-64
2023/07/25 18:49:15;;;;;;;;;;;;;;;18.20;65.00;100871.56;10460889;28;20376;-64
2023/07/25 18:54:18;;;;;;;;;;;;;;;18.05;64.37;100880.84;10443161;28;19931;-64
2023/07/25 18:59:20;;;;;;;;;;;;;;;18.14;64.27;100879.19;10460388;28;19925;-64
2023/07/25 19:04:22;;;;;;;;;;;;;;;17.95;64.58;100896.72;10460234;28;20380;-64
2023/07/25 19:09:26;;;;;;;;;;;;;;;17.42;66.04;100900.34;10460178;28;19932;-64
2023/07/25 19:14:28;;;;;;;;;;;;;;;17.22;64.76;100899.38;10460220;28;20028;-64
2023/07/25 19:19:30;;;;;;;;;;;;;;;17.06;65.65;100907.75;10459901;28;20003;-64
2023/07/25 19:24:33;;;;;;;;;;;;;;;17.20;66.69;100911.91;10459735;28;19936;-64
2023/07/25 19:29:35;;;;;;;;;;;;;;;17.09;67.15;100915.41;10459526;28;19925;-64
2023/07/25 19:34:37;;;;;;;;;;;;;;;16.87;69.09;100918.16;10459248;28;19925;-65
2023/07/25 19:39:39;;;;;;;;;;;;;;;16.73;68.55;100927.19;10459005;28;20389;-64
2023/07/25 19:44:42;;;;;;;;;;;;;;;16.44;70.10;100929.53;10458637;28;20364;-64
2023/07/25 19:49:44;;;;;;;;;;;;;;;16.20;70.38;100943.75;10458712;28;19933;-64
2023/07/25 19:54:47;;;;;;;;;;;;;;;16.58;69.50;100946.97;10458240;28;19927;-64
2023/07/25 19:59:50;;;;;;;;;;;;;;;16.31;69.81;100956.94;10457954;28;20288;-64
2023/07/25 20:04:52;;;;;;;;;;;;;;;16.29;70.16;100966.81;10457879;28;20360;-64
2023/07/25 20:09:54;;;;;;;;;;;;;;;16.05;71.32;100968.72;10457827;28;20379;-64
2023/07/25 20:14:56;;;;;;;;;;;;;;;16.19;70.78;100975.56;10457737;28;20003;-64
2023/07/25 20:19:59;;;;;;;;;;;;;;;15.89;72.86;100984.91;10457578;28;19925;-64
2023/07/25 20:25:01;;;;;;;;;;;;;;;15.82;73.29;100981.91;10457247;28;20411;-64
2023/07/25 20:30:04;;;;;;;;;;;;;;;15.92;73.67;100985.53;10457135;28;20303;-64
2023/07/25 20:35:06;;;;;;;;;;;;;;;15.80;74.32;100991.72;10456987;28;19935;-64
2023/07/25 20:40:09;;;;;;;;;;;;;;;15.60;76.12;100999.34;10456918;28;19925;-64
2023/07/25 20:45:12;;;;;;;;;;;;;;;15.32;79.15;100999.72;10456743;28;19998;-64
2023/07/25 20:50:16;;;;;;;;;;;;;;;15.16;81.36;101006.13;10456623;28;19964;-64
2023/07/25 20:55:19;;;;;;;;;;;;;;;15.26;81.52;101008.09;10455439;28;19947;-64
2023/07/25 21:00:21;;;;;;;;;;;;;;;15.30;80.98;101007.75;10456318;28;19925;-64
2023/07/25 21:05:23;;;;;;;;;;;;;;;15.31;81.60;101013.84;10456397;28;20011;-64
2023/07/25 21:10:26;;;;;;;;;;;;;;;15.39;82.95;101014.97;10464029;28;19925;-64
2023/07/25 21:15:28;;;;;;;;;;;;;;;15.26;84.04;101013.34;10446747;28;19937;-64
2023/07/25 21:20:30;;;;;;;;;;;;;;;15.21;84.85;101017.19;10446587;28;19931;-64
2023/07/25 21:25:32;;;;;;;;;;;;;;;14.95;87.38;101012.97;10464092;28;20371;-64
2023/07/25 21:30:35;;;;;;;;;;;;;;;14.74;91.10;101017.97;10464054;28;19925;-64
2023/07/25 21:35:37;;;;;;;;;;;;;;;14.82;91.34;101011.19;10463784;28;20034;-64
2023/07/25 21:40:39;;;;;;;;;;;;;;;14.90;92.16;101015.94;10463802;28;19925;-64
2023/07/25 21:45:41;;;;;;;;;;;;;;;14.89;92.40;101016.88;10463369;28;19925;-64
2023/07/25 21:50:44;;;;;;;;;;;;;;;14.91;92.55;101015.00;10463216;28;20282;-64
2023/07/25 21:55:46;;;;;;;;;;;;;;;15.05;89.90;101025.34;10463132;28;19925;-64
2023/07/25 22:00:48;;;;;;;;;;;;;;;15.03;91.58;101023.81;10462659;28;20376;-64
2023/07/25 22:05:51;;;;;;;;;;;;;;;14.96;92.85;101019.91;10462710;28;19925;-64
2023/07/25 22:10:53;;;;;;;;;;;;;;;14.83;95.55;101031.34;10462508;28;19928;-64
2023/07/25 22:15:56;;;;;;;;;;;;;;;14.76;96.26;101032.75;10462273;28;20326;-64
2023/07/25 22:21:01;;;;;;;;;;;;;;;14.76;94.90;101032.75;10461944;28;20000;-64
2023/07/25 22:26:03;;;;;;;;;;;;;;;14.63;96.24;101031.94;10462081;28;19929;-64
2023/07/25 22:31:05;;;;;;;;;;;;;;;14.48;97.96;101028.53;10461744;28;19967;-64
2023/07/25 22:36:08;;;;;;;;;;;;;;;14.63;96.90;101022.22;10460346;28;20422;-64
2023/07/25 22:41:10;;;;;;;;;;;;;;;14.62;98.16;101025.78;10461490;28;19924;-64
2023/07/25 22:46:12;;;;;;;;;;;;;;;14.61;95.08;101023.31;10459786;28;20280;-64
2023/07/25 22:51:14;;;;;;;;;;;;;;;14.57;97.46;101024.41;10460882;28;20379;-64
2023/07/25 22:56:17;;;;;;;;;;;;;;;14.58;95.96;101028.75;10460339;28;19924;-64
2023/07/25 23:01:19;;;;;;;;;;;;;;;14.48;97.03;101024.09;10460726;28;19925;-64
2023/07/25 23:06:21;;;;;;;;;;;;;;;14.79;93.99;101024.63;10460279;28;20348;-64
2023/07/25 23:11:24;;;;;;;;;;;;;;;14.70;94.51;101024.44;10460077;28;20355;-64
2023/07/25 23:16:26;;;;;;;;;;;;;;;14.76;90.73;101022.19;10460093;28;19924;-64
2023/07/25 23:21:28;;;;;;;;;;;;;;;14.97;87.72;101022.44;10459820;28;19929;-64
2023/07/25 23:26:30;;;;;;;;;;;;;;;14.90;87.75;101018.56;10459445;28;20368;-64
2023/07/25 23:31:33;;;;;;;;;;;;;;;14.80;92.52;101017.56;10459015;28;20003;-64
2023/07/25 23:36:35;;;;;;;;;;;;;;;14.94;89.49;101013.91;10459092;28;19924;-64
2023/07/25 23:41:38;;;;;;;;;;;;;;;15.00;88.37;101013.47;10458881;28;20390;-64
2023/07/25 23:46:40;;;;;;;;;;;;;;;14.99;88.12;101033.72;10458630;28;20376;-64
2023/07/25 23:51:42;;;;;;;;;;;;;;;14.81;90.01;101027.97;10458491;28;19932;-64
2023/07/25 23:56:44;;;;;;;;;;;;;;;15.13;89.11;101023.94;10458079;28;19931;-64
